sensor_id;sensor_type;location;lat;lon;timestamp;temperature;humidity
53410;DHT22;66590;50.734;4.246;2023-08-30T00:00:24;14.50;99.90
53410;DHT22;66590;50.734;4.246;2023-08-30T00:02:53;14.50;99.90
53410;DHT22;66590;50.734;4.246;2023-08-30T00:05:20;14.40;99.90
53410;DHT22;66590;50.734;4.246;2023-08-30T00:07:47;14.50;99.90
53410;DHT22;66590;50.734;4.246;2023-08-30T00:10:14;14.60;99.90
53410;DHT22;66590;50.734;4.246;2023-08-30T00:12:42;14.50;99.90
53410;DHT22;66590;50.734;4.246;2023-08-30T00:15:09;14.50;99.90
53410;DHT22;66590;50.734;4.246;2023-08-30T00:17:36;14.40;99.90
53410;DHT22;66590;50.734;4.246;2023-08-30T00:20:07;14.20;99.90
53410;DHT22;66590;50.734;4.246;2023-08-30T00:22:34;14.20;99.90
53410;DHT22;66590;50.734;4.246;2023-08-30T00:25:01;14.20;99.90
53410;DHT22;66590;50.734;4.246;2023-08-30T00:27:28;14.20;99.90
53410;DHT22;66590;50.734;4.246;2023-08-30T00:29:55;14.20;99.90
53410;DHT22;66590;50.734;4.246;2023-08-30T00:32:22;14.10;99.90
53410;DHT22;66590;50.734;4.246;2023-08-30T00:34:50;14.00;99.90
53410;DHT22;66590;50.734;4.246;2023-08-30T00:37:18;14.10;99.90
53410;DHT22;66590;50.734;4.246;2023-08-30T00:39:45;14.10;99.90
53410;DHT22;66590;50.734;4.246;2023-08-30T00:42:12;14.00;99.90
53410;DHT22;66590;50.734;4.246;2023-08-30T00:44:39;14.00;99.90
53410;DHT22;66590;50.734;4.246;2023-08-30T00:47:06;14.20;99.90
53410;DHT22;66590;50.734;4.246;2023-08-30T00:49:33;14.40;99.90
53410;DHT22;66590;50.734;4.246;2023-08-30T00:52:02;14.30;99.90
53410;DHT22;66590;50.734;4.246;2023-08-30T00:54:32;14.30;99.90
53410;DHT22;66590;50.734;4.246;2023-08-30T00:57:00;14.20;99.90
53410;DHT22;66590;50.734;4.246;2023-08-30T00:59:28;14.30;99.90
53410;DHT22;66590;50.734;4.246;2023-08-30T01:01:56;14.10;99.90
53410;DHT22;66590;50.734;4.246;2023-08-30T01:04:24;14.10;99.90
53410;DHT22;66590;50.734;4.246;2023-08-30T01:06:51;14.00;99.90
53410;DHT22;66590;50.734;4.246;2023-08-30T01:09:19;14.10;99.90
53410;DHT22;66590;50.734;4.246;2023-08-30T01:11:53;14.00;99.90
53410;DHT22;66590;50.734;4.246;2023-08-30T01:14:22;14.10;99.90
53410;DHT22;66590;50.734;4.246;2023-08-30T01:16:52;14.40;99.90
53410;DHT22;66590;50.734;4.246;2023-08-30T01:19:38;14.40;99.90
53410;DHT22;66590;50.734;4.246;2023-08-30T01:22:14;14.40;99.90
53410;DHT22;66590;50.734;4.246;2023-08-30T01:24:45;14.30;99.90
53410;DHT22;66590;50.734;4.246;2023-08-30T01:27:16;14.50;99.90
53410;DHT22;66590;50.734;4.246;2023-08-30T01:29:46;14.30;99.90
53410;DHT22;66590;50.734;4.246;2023-08-30T01:32:14;14.10;99.90
53410;DHT22;66590;50.734;4.246;2023-08-30T01:34:42;14.00;99.90
53410;DHT22;66590;50.734;4.246;2023-08-30T01:37:10;13.90;99.90
53410;DHT22;66590;50.734;4.246;2023-08-30T01:39:38;14.00;99.90
53410;DHT22;66590;50.734;4.246;2023-08-30T01:42:07;14.20;99.90
53410;DHT22;66590;50.734;4.246;2023-08-30T01:44:38;14.20;99.90
53410;DHT22;66590;50.734;4.246;2023-08-30T01:47:07;14.20;99.90
53410;DHT22;66590;50.734;4.246;2023-08-30T01:49:34;14.20;99.90
53410;DHT22;66590;50.734;4.246;2023-08-30T01:52:01;14.20;99.90
53410;DHT22;66590;50.734;4.246;2023-08-30T01:54:30;14.20;99.90
53410;DHT22;66590;50.734;4.246;2023-08-30T01:56:57;14.20;99.90
53410;DHT22;66590;50.734;4.246;2023-08-30T01:59:24;14.30;99.90
53410;DHT22;66590;50.734;4.246;2023-08-30T02:01:52;14.30;99.90
53410;DHT22;66590;50.734;4.246;2023-08-30T02:04:19;14.30;99.90
53410;DHT22;66590;50.734;4.246;2023-08-30T02:06:53;14.60;99.90
53410;DHT22;66590;50.734;4.246;2023-08-30T02:09:26;14.60;99.90
53410;DHT22;66590;50.734;4.246;2023-08-30T02:11:55;14.60;99.90
53410;DHT22;66590;50.734;4.246;2023-08-30T02:14:25;14.60;99.90
53410;DHT22;66590;50.734;4.246;2023-08-30T02:16:55;14.60;99.90
53410;DHT22;66590;50.734;4.246;2023-08-30T02:19:22;14.60;99.90
53410;DHT22;66590;50.734;4.246;2023-08-30T02:21:50;14.60;99.90
53410;DHT22;66590;50.734;4.246;2023-08-30T02:24:17;14.60;99.90
53410;DHT22;66590;50.734;4.246;2023-08-30T02:26:43;14.60;99.90
53410;DHT22;66590;50.734;4.246;2023-08-30T02:29:10;14.60;99.90
53410;DHT22;66590;50.734;4.246;2023-08-30T02:31:37;14.70;99.90
53410;DHT22;66590;50.734;4.246;2023-08-30T02:34:06;14.90;99.90
53410;DHT22;66590;50.734;4.246;2023-08-30T02:36:33;14.90;99.90
53410;DHT22;66590;50.734;4.246;2023-08-30T02:39:00;14.90;99.90
53410;DHT22;66590;50.734;4.246;2023-08-30T02:41:27;14.90;99.90
53410;DHT22;66590;50.734;4.246;2023-08-30T02:43:53;15.00;99.90
53410;DHT22;66590;50.734;4.246;2023-08-30T02:46:20;15.10;99.90
53410;DHT22;66590;50.734;4.246;2023-08-30T02:48:47;15.10;99.90
53410;DHT22;66590;50.734;4.246;2023-08-30T02:51:16;15.10;99.90
53410;DHT22;66590;50.734;4.246;2023-08-30T02:53:43;14.90;99.90
53410;DHT22;66590;50.734;4.246;2023-08-30T02:56:09;14.70;99.90
53410;DHT22;66590;50.734;4.246;2023-08-30T02:58:36;14.70;99.90
53410;DHT22;66590;50.734;4.246;2023-08-30T03:01:03;14.90;99.90
53410;DHT22;66590;50.734;4.246;2023-08-30T03:03:30;15.00;99.90
53410;DHT22;66590;50.734;4.246;2023-08-30T03:05:58;15.00;99.90
53410;DHT22;66590;50.734;4.246;2023-08-30T03:08:26;15.10;99.90
53410;DHT22;66590;50.734;4.246;2023-08-30T03:10:53;15.10;99.90
53410;DHT22;66590;50.734;4.246;2023-08-30T03:13:20;15.30;99.90
53410;DHT22;66590;50.734;4.246;2023-08-30T03:15:47;15.30;99.90
53410;DHT22;66590;50.734;4.246;2023-08-30T03:18:14;15.30;99.90
53410;DHT22;66590;50.734;4.246;2023-08-30T03:20:41;15.40;99.90
53410;DHT22;66590;50.734;4.246;2023-08-30T03:23:08;15.40;99.90
53410;DHT22;66590;50.734;4.246;2023-08-30T03:25:36;15.40;99.90
53410;DHT22;66590;50.734;4.246;2023-08-30T03:28:03;15.30;99.90
53410;DHT22;66590;50.734;4.246;2023-08-30T03:30:30;15.40;99.90
53410;DHT22;66590;50.734;4.246;2023-08-30T03:32:57;15.50;99.90
53410;DHT22;66590;50.734;4.246;2023-08-30T03:35:24;15.50;99.90
53410;DHT22;66590;50.734;4.246;2023-08-30T03:37:51;15.50;99.90
53410;DHT22;66590;50.734;4.246;2023-08-30T03:40:18;15.60;99.90
53410;DHT22;66590;50.734;4.246;2023-08-30T03:42:46;15.40;99.90
53410;DHT22;66590;50.734;4.246;2023-08-30T03:45:13;15.40;99.90
53410;DHT22;66590;50.734;4.246;2023-08-30T03:47:40;15.50;99.90
53410;DHT22;66590;50.734;4.246;2023-08-30T03:50:08;15.50;99.90
53410;DHT22;66590;50.734;4.246;2023-08-30T03:52:35;15.50;99.90
53410;DHT22;66590;50.734;4.246;2023-08-30T03:55:02;15.30;99.90
53410;DHT22;66590;50.734;4.246;2023-08-30T03:57:29;15.40;99.90
53410;DHT22;66590;50.734;4.246;2023-08-30T03:59:57;15.30;99.90
53410;DHT22;66590;50.734;4.246;2023-08-30T04:02:24;15.30;99.90
53410;DHT22;66590;50.734;4.246;2023-08-30T04:04:51;15.20;99.90
53410;DHT22;66590;50.734;4.246;2023-08-30T04:07:18;15.30;99.90
53410;DHT22;66590;50.734;4.246;2023-08-30T04:09:45;15.20;99.90
53410;DHT22;66590;50.734;4.246;2023-08-30T04:12:12;15.10;99.90
53410;DHT22;66590;50.734;4.246;2023-08-30T04:14:39;15.30;99.90
53410;DHT22;66590;50.734;4.246;2023-08-30T04:17:07;15.20;99.90
53410;DHT22;66590;50.734;4.246;2023-08-30T04:19:34;15.30;99.90
53410;DHT22;66590;50.734;4.246;2023-08-30T04:22:01;15.40;99.90
53410;DHT22;66590;50.734;4.246;2023-08-30T04:24:27;15.30;99.90
53410;DHT22;66590;50.734;4.246;2023-08-30T04:26:54;15.00;99.90
53410;DHT22;66590;50.734;4.246;2023-08-30T04:29:22;14.90;99.90
53410;DHT22;66590;50.734;4.246;2023-08-30T04:31:49;14.90;99.90
53410;DHT22;66590;50.734;4.246;2023-08-30T04:34:17;14.90;99.90
53410;DHT22;66590;50.734;4.246;2023-08-30T04:36:44;14.80;99.90
53410;DHT22;66590;50.734;4.246;2023-08-30T04:39:12;14.80;99.90
53410;DHT22;66590;50.734;4.246;2023-08-30T04:41:39;14.60;99.90
53410;DHT22;66590;50.734;4.246;2023-08-30T04:44:06;14.50;99.90
53410;DHT22;66590;50.734;4.246;2023-08-30T04:46:33;14.70;99.90
53410;DHT22;66590;50.734;4.246;2023-08-30T04:49:00;14.50;99.90
53410;DHT22;66590;50.734;4.246;2023-08-30T04:51:28;14.40;99.90
53410;DHT22;66590;50.734;4.246;2023-08-30T04:53:55;14.30;99.90
53410;DHT22;66590;50.734;4.246;2023-08-30T04:56:22;14.30;99.90
53410;DHT22;66590;50.734;4.246;2023-08-30T04:58:49;14.40;99.90
53410;DHT22;66590;50.734;4.246;2023-08-30T05:01:16;14.30;99.90
53410;DHT22;66590;50.734;4.246;2023-08-30T05:03:43;14.30;99.90
53410;DHT22;66590;50.734;4.246;2023-08-30T05:06:10;14.30;99.90
53410;DHT22;66590;50.734;4.246;2023-08-30T05:08:38;14.30;99.90
53410;DHT22;66590;50.734;4.246;2023-08-30T05:11:05;14.30;99.90
53410;DHT22;66590;50.734;4.246;2023-08-30T05:13:32;14.40;99.90
53410;DHT22;66590;50.734;4.246;2023-08-30T05:15:59;14.30;99.90
53410;DHT22;66590;50.734;4.246;2023-08-30T05:18:26;14.20;99.90
53410;DHT22;66590;50.734;4.246;2023-08-30T05:20:53;14.10;99.90
53410;DHT22;66590;50.734;4.246;2023-08-30T05:23:20;14.10;99.90
53410;DHT22;66590;50.734;4.246;2023-08-30T05:25:48;14.10;99.90
53410;DHT22;66590;50.734;4.246;2023-08-30T05:28:15;14.20;99.90
53410;DHT22;66590;50.734;4.246;2023-08-30T05:30:44;14.20;99.90
53410;DHT22;66590;50.734;4.246;2023-08-30T05:33:11;14.20;99.90
53410;DHT22;66590;50.734;4.246;2023-08-30T05:35:38;14.10;99.90
53410;DHT22;66590;50.734;4.246;2023-08-30T05:38:05;14.30;99.90
53410;DHT22;66590;50.734;4.246;2023-08-30T05:40:32;14.30;99.90
53410;DHT22;66590;50.734;4.246;2023-08-30T05:43:00;14.30;99.90
53410;DHT22;66590;50.734;4.246;2023-08-30T05:45:27;14.20;99.90
53410;DHT22;66590;50.734;4.246;2023-08-30T05:47:54;14.30;99.90
53410;DHT22;66590;50.734;4.246;2023-08-30T05:50:21;14.30;99.90
53410;DHT22;66590;50.734;4.246;2023-08-30T05:52:48;14.30;99.90
53410;DHT22;66590;50.734;4.246;2023-08-30T05:55:15;14.30;99.90
53410;DHT22;66590;50.734;4.246;2023-08-30T05:57:42;14.30;99.90
53410;DHT22;66590;50.734;4.246;2023-08-30T06:00:12;14.50;99.90
53410;DHT22;66590;50.734;4.246;2023-08-30T06:02:39;14.40;99.90
53410;DHT22;66590;50.734;4.246;2023-08-30T06:05:07;14.40;99.90
53410;DHT22;66590;50.734;4.246;2023-08-30T06:07:34;14.50;99.90
53410;DHT22;66590;50.734;4.246;2023-08-30T06:10:02;14.70;99.90
53410;DHT22;66590;50.734;4.246;2023-08-30T06:12:29;14.60;99.90
53410;DHT22;66590;50.734;4.246;2023-08-30T06:14:56;14.50;99.90
53410;DHT22;66590;50.734;4.246;2023-08-30T06:17:24;14.60;99.90
53410;DHT22;66590;50.734;4.246;2023-08-30T06:19:51;14.40;99.90
53410;DHT22;66590;50.734;4.246;2023-08-30T06:22:18;14.50;99.90
53410;DHT22;66590;50.734;4.246;2023-08-30T06:24:45;14.50;99.90
53410;DHT22;66590;50.734;4.246;2023-08-30T06:27:12;14.80;99.90
53410;DHT22;66590;50.734;4.246;2023-08-30T06:29:39;14.60;99.90
53410;DHT22;66590;50.734;4.246;2023-08-30T06:32:06;14.60;99.90
53410;DHT22;66590;50.734;4.246;2023-08-30T06:34:35;14.60;99.90
53410;DHT22;66590;50.734;4.246;2023-08-30T06:37:02;14.50;99.90
53410;DHT22;66590;50.734;4.246;2023-08-30T06:39:32;14.40;99.90
53410;DHT22;66590;50.734;4.246;2023-08-30T06:41:59;14.40;99.90
53410;DHT22;66590;50.734;4.246;2023-08-30T06:44:26;14.50;99.90
53410;DHT22;66590;50.734;4.246;2023-08-30T06:46:53;14.40;99.90
53410;DHT22;66590;50.734;4.246;2023-08-30T06:49:20;14.30;99.90
53410;DHT22;66590;50.734;4.246;2023-08-30T06:51:49;14.50;99.90
53410;DHT22;66590;50.734;4.246;2023-08-30T06:54:16;14.40;99.90
53410;DHT22;66590;50.734;4.246;2023-08-30T06:56:57;14.40;99.90
53410;DHT22;66590;50.734;4.246;2023-08-30T06:59:24;14.30;99.90
53410;DHT22;66590;50.734;4.246;2023-08-30T07:01:51;14.50;99.90
53410;DHT22;66590;50.734;4.246;2023-08-30T07:04:18;14.70;99.90
53410;DHT22;66590;50.734;4.246;2023-08-30T07:06:45;14.60;99.90
53410;DHT22;66590;50.734;4.246;2023-08-30T07:09:13;14.70;99.90
53410;DHT22;66590;50.734;4.246;2023-08-30T07:11:42;14.70;99.90
53410;DHT22;66590;50.734;4.246;2023-08-30T07:14:09;14.80;99.90
53410;DHT22;66590;50.734;4.246;2023-08-30T07:16:36;14.60;99.90
53410;DHT22;66590;50.734;4.246;2023-08-30T07:19:03;14.60;99.90
53410;DHT22;66590;50.734;4.246;2023-08-30T07:21:30;14.70;99.90
53410;DHT22;66590;50.734;4.246;2023-08-30T07:23:56;14.70;99.90
53410;DHT22;66590;50.734;4.246;2023-08-30T07:26:25;14.80;99.90
53410;DHT22;66590;50.734;4.246;2023-08-30T07:28:52;14.90;99.90
53410;DHT22;66590;50.734;4.246;2023-08-30T07:31:19;15.00;99.90
53410;DHT22;66590;50.734;4.246;2023-08-30T07:33:46;14.90;99.90
53410;DHT22;66590;50.734;4.246;2023-08-30T07:36:13;14.90;99.90
53410;DHT22;66590;50.734;4.246;2023-08-30T07:38:39;15.00;99.90
53410;DHT22;66590;50.734;4.246;2023-08-30T07:41:06;15.00;99.90
53410;DHT22;66590;50.734;4.246;2023-08-30T07:43:35;15.00;99.90
53410;DHT22;66590;50.734;4.246;2023-08-30T07:46:02;15.10;99.90
53410;DHT22;66590;50.734;4.246;2023-08-30T07:48:29;15.10;99.90
53410;DHT22;66590;50.734;4.246;2023-08-30T07:50:56;15.00;99.90
53410;DHT22;66590;50.734;4.246;2023-08-30T07:53:23;14.90;99.90
53410;DHT22;66590;50.734;4.246;2023-08-30T07:55:50;15.00;99.90
53410;DHT22;66590;50.734;4.246;2023-08-30T07:58:17;15.10;99.90
53410;DHT22;66590;50.734;4.246;2023-08-30T08:00:45;15.20;99.90
53410;DHT22;66590;50.734;4.246;2023-08-30T08:03:17;15.20;99.90
53410;DHT22;66590;50.734;4.246;2023-08-30T08:05:43;15.30;99.90
53410;DHT22;66590;50.734;4.246;2023-08-30T08:08:11;15.50;99.90
53410;DHT22;66590;50.734;4.246;2023-08-30T08:10:38;15.30;99.90
53410;DHT22;66590;50.734;4.246;2023-08-30T08:13:05;15.00;99.90
53410;DHT22;66590;50.734;4.246;2023-08-30T08:15:32;15.00;99.90
53410;DHT22;66590;50.734;4.246;2023-08-30T08:18:00;14.90;99.90
53410;DHT22;66590;50.734;4.246;2023-08-30T08:20:29;14.80;99.90
53410;DHT22;66590;50.734;4.246;2023-08-30T08:22:56;14.80;99.90
53410;DHT22;66590;50.734;4.246;2023-08-30T08:25:23;14.80;99.90
53410;DHT22;66590;50.734;4.246;2023-08-30T08:27:50;14.90;99.90
53410;DHT22;66590;50.734;4.246;2023-08-30T08:30:17;15.00;99.90
53410;DHT22;66590;50.734;4.246;2023-08-30T08:32:45;14.90;99.90
53410;DHT22;66590;50.734;4.246;2023-08-30T08:35:14;14.90;99.90
53410;DHT22;66590;50.734;4.246;2023-08-30T08:37:41;14.90;99.90
53410;DHT22;66590;50.734;4.246;2023-08-30T08:40:08;14.80;99.90
53410;DHT22;66590;50.734;4.246;2023-08-30T08:42:36;14.80;99.90
53410;DHT22;66590;50.734;4.246;2023-08-30T08:45:04;14.90;99.90
53410;DHT22;66590;50.734;4.246;2023-08-30T08:47:31;14.90;99.90
53410;DHT22;66590;50.734;4.246;2023-08-30T08:49:59;14.90;99.90
53410;DHT22;66590;50.734;4.246;2023-08-30T08:52:28;14.90;99.90
53410;DHT22;66590;50.734;4.246;2023-08-30T08:55:02;15.00;99.90
53410;DHT22;66590;50.734;4.246;2023-08-30T08:57:29;15.10;99.90
53410;DHT22;66590;50.734;4.246;2023-08-30T08:59:56;15.00;99.90
53410;DHT22;66590;50.734;4.246;2023-08-30T09:02:23;15.00;99.90
53410;DHT22;66590;50.734;4.246;2023-08-30T09:04:52;15.20;99.90
53410;DHT22;66590;50.734;4.246;2023-08-30T09:07:19;15.30;99.90
53410;DHT22;66590;50.734;4.246;2023-08-30T09:09:48;15.50;99.90
53410;DHT22;66590;50.734;4.246;2023-08-30T09:12:15;15.70;99.90
53410;DHT22;66590;50.734;4.246;2023-08-30T09:14:53;15.70;99.90
53410;DHT22;66590;50.734;4.246;2023-08-30T09:17:20;15.80;99.90
53410;DHT22;66590;50.734;4.246;2023-08-30T09:19:47;15.80;99.90
53410;DHT22;66590;50.734;4.246;2023-08-30T09:22:13;16.00;99.90
53410;DHT22;66590;50.734;4.246;2023-08-30T09:24:41;16.00;99.90
53410;DHT22;66590;50.734;4.246;2023-08-30T09:27:09;15.90;99.90
53410;DHT22;66590;50.734;4.246;2023-08-30T09:29:36;15.80;99.90
53410;DHT22;66590;50.734;4.246;2023-08-30T09:32:04;15.80;99.90
53410;DHT22;66590;50.734;4.246;2023-08-30T09:34:31;15.90;99.90
53410;DHT22;66590;50.734;4.246;2023-08-30T09:36:58;15.90;99.90
53410;DHT22;66590;50.734;4.246;2023-08-30T09:39:25;16.10;99.90
53410;DHT22;66590;50.734;4.246;2023-08-30T09:41:54;16.10;99.90
53410;DHT22;66590;50.734;4.246;2023-08-30T09:44:22;16.20;99.90
53410;DHT22;66590;50.734;4.246;2023-08-30T09:46:51;16.10;99.90
53410;DHT22;66590;50.734;4.246;2023-08-30T09:49:20;16.30;99.90
53410;DHT22;66590;50.734;4.246;2023-08-30T09:51:51;16.40;99.90
53410;DHT22;66590;50.734;4.246;2023-08-30T09:54:19;16.30;99.90
53410;DHT22;66590;50.734;4.246;2023-08-30T09:57:04;16.30;99.90
53410;DHT22;66590;50.734;4.246;2023-08-30T09:59:34;16.20;99.90
53410;DHT22;66590;50.734;4.246;2023-08-30T10:02:02;16.10;99.90
53410;DHT22;66590;50.734;4.246;2023-08-30T10:04:29;16.00;99.90
53410;DHT22;66590;50.734;4.246;2023-08-30T10:06:58;16.10;99.90
53410;DHT22;66590;50.734;4.246;2023-08-30T10:09:25;15.90;99.90
53410;DHT22;66590;50.734;4.246;2023-08-30T10:11:53;15.80;99.90
53410;DHT22;66590;50.734;4.246;2023-08-30T10:14:20;15.90;99.90
53410;DHT22;66590;50.734;4.246;2023-08-30T10:16:49;15.90;99.90
53410;DHT22;66590;50.734;4.246;2023-08-30T10:19:23;16.00;99.90
53410;DHT22;66590;50.734;4.246;2023-08-30T10:21:56;16.00;99.90
53410;DHT22;66590;50.734;4.246;2023-08-30T10:24:26;16.00;99.90
53410;DHT22;66590;50.734;4.246;2023-08-30T10:27:05;16.00;99.90
53410;DHT22;66590;50.734;4.246;2023-08-30T10:29:34;16.10;99.90
53410;DHT22;66590;50.734;4.246;2023-08-30T10:32:04;16.10;99.90
53410;DHT22;66590;50.734;4.246;2023-08-30T10:34:32;16.30;99.90
53410;DHT22;66590;50.734;4.246;2023-08-30T10:37:00;16.80;99.90
53410;DHT22;66590;50.734;4.246;2023-08-30T10:39:34;16.90;99.90
53410;DHT22;66590;50.734;4.246;2023-08-30T10:42:07;17.10;99.90
53410;DHT22;66590;50.734;4.246;2023-08-30T10:44:35;17.00;99.90
53410;DHT22;66590;50.734;4.246;2023-08-30T10:47:18;17.00;99.90
53410;DHT22;66590;50.734;4.246;2023-08-30T10:49:47;17.00;99.90
53410;DHT22;66590;50.734;4.246;2023-08-30T10:52:14;17.30;99.90
53410;DHT22;66590;50.734;4.246;2023-08-30T10:54:41;17.60;99.90
53410;DHT22;66590;50.734;4.246;2023-08-30T10:57:13;17.80;99.90
53410;DHT22;66590;50.734;4.246;2023-08-30T10:59:47;17.60;99.90
53410;DHT22;66590;50.734;4.246;2023-08-30T11:02:16;17.70;99.90
53410;DHT22;66590;50.734;4.246;2023-08-30T11:04:43;17.80;99.90
53410;DHT22;66590;50.734;4.246;2023-08-30T11:07:11;17.90;99.90
53410;DHT22;66590;50.734;4.246;2023-08-30T11:09:40;17.80;99.90
53410;DHT22;66590;50.734;4.246;2023-08-30T11:12:07;17.70;99.90
53410;DHT22;66590;50.734;4.246;2023-08-30T11:14:34;17.70;99.90
53410;DHT22;66590;50.734;4.246;2023-08-30T11:17:00;17.90;99.90
53410;DHT22;66590;50.734;4.246;2023-08-30T11:19:31;18.30;99.90
53410;DHT22;66590;50.734;4.246;2023-08-30T11:21:58;18.40;99.90
53410;DHT22;66590;50.734;4.246;2023-08-30T11:24:25;18.40;99.90
53410;DHT22;66590;50.734;4.246;2023-08-30T11:26:55;18.60;99.90
53410;DHT22;66590;50.734;4.246;2023-08-30T11:29:22;18.20;99.90
53410;DHT22;66590;50.734;4.246;2023-08-30T11:31:49;18.00;99.90
53410;DHT22;66590;50.734;4.246;2023-08-30T11:34:20;18.00;99.90
53410;DHT22;66590;50.734;4.246;2023-08-30T11:36:49;18.00;99.90
53410;DHT22;66590;50.734;4.246;2023-08-30T11:39:16;18.00;99.90
53410;DHT22;66590;50.734;4.246;2023-08-30T11:41:44;17.80;99.90
53410;DHT22;66590;50.734;4.246;2023-08-30T11:44:11;18.00;99.90
53410;DHT22;66590;50.734;4.246;2023-08-30T11:46:38;18.30;99.90
53410;DHT22;66590;50.734;4.246;2023-08-30T11:49:05;18.50;99.90
53410;DHT22;66590;50.734;4.246;2023-08-30T11:51:33;18.50;99.90
53410;DHT22;66590;50.734;4.246;2023-08-30T11:54:01;18.50;99.90
53410;DHT22;66590;50.734;4.246;2023-08-30T11:56:30;18.90;99.90
53410;DHT22;66590;50.734;4.246;2023-08-30T11:58:57;18.90;99.90
53410;DHT22;66590;50.734;4.246;2023-08-30T12:01:24;18.70;99.90
53410;DHT22;66590;50.734;4.246;2023-08-30T12:03:51;18.70;99.90
53410;DHT22;66590;50.734;4.246;2023-08-30T12:06:18;18.50;99.90
53410;DHT22;66590;50.734;4.246;2023-08-30T12:08:45;18.50;99.90
53410;DHT22;66590;50.734;4.246;2023-08-30T12:11:20;18.70;99.90
53410;DHT22;66590;50.734;4.246;2023-08-30T12:13:47;18.80;99.90
53410;DHT22;66590;50.734;4.246;2023-08-30T12:16:18;18.90;99.90
53410;DHT22;66590;50.734;4.246;2023-08-30T12:18:45;18.60;99.90
53410;DHT22;66590;50.734;4.246;2023-08-30T12:21:13;18.60;99.90
53410;DHT22;66590;50.734;4.246;2023-08-30T12:23:40;18.50;99.90
53410;DHT22;66590;50.734;4.246;2023-08-30T12:26:08;18.40;99.90
53410;DHT22;66590;50.734;4.246;2023-08-30T12:28:38;18.50;99.90
53410;DHT22;66590;50.734;4.246;2023-08-30T12:31:05;18.50;99.90
53410;DHT22;66590;50.734;4.246;2023-08-30T12:33:33;18.60;99.90
53410;DHT22;66590;50.734;4.246;2023-08-30T12:36:01;18.80;99.90
53410;DHT22;66590;50.734;4.246;2023-08-30T12:38:28;19.10;99.90
53410;DHT22;66590;50.734;4.246;2023-08-30T12:40:55;19.60;99.90
53410;DHT22;66590;50.734;4.246;2023-08-30T12:43:23;19.90;99.90
53410;DHT22;66590;50.734;4.246;2023-08-30T12:45:51;19.90;99.90
53410;DHT22;66590;50.734;4.246;2023-08-30T12:48:20;20.10;99.90
53410;DHT22;66590;50.734;4.246;2023-08-30T12:50:47;20.30;99.90
53410;DHT22;66590;50.734;4.246;2023-08-30T12:53:15;20.00;99.90
53410;DHT22;66590;50.734;4.246;2023-08-30T12:55:42;19.60;99.90
53410;DHT22;66590;50.734;4.246;2023-08-30T12:58:09;19.30;99.90
53410;DHT22;66590;50.734;4.246;2023-08-30T13:00:36;19.10;99.90
53410;DHT22;66590;50.734;4.246;2023-08-30T13:03:04;19.00;99.90
53410;DHT22;66590;50.734;4.246;2023-08-30T13:05:31;18.80;99.90
53410;DHT22;66590;50.734;4.246;2023-08-30T13:07:58;18.90;99.90
53410;DHT22;66590;50.734;4.246;2023-08-30T13:10:26;19.10;99.90
53410;DHT22;66590;50.734;4.246;2023-08-30T13:12:53;19.40;99.90
53410;DHT22;66590;50.734;4.246;2023-08-30T13:15:20;20.00;99.90
53410;DHT22;66590;50.734;4.246;2023-08-30T13:17:47;20.40;99.90
53410;DHT22;66590;50.734;4.246;2023-08-30T13:20:15;20.90;99.90
53410;DHT22;66590;50.734;4.246;2023-08-30T13:22:42;21.30;99.90
53410;DHT22;66590;50.734;4.246;2023-08-30T13:25:09;20.90;99.90
53410;DHT22;66590;50.734;4.246;2023-08-30T13:27:36;20.60;99.90
53410;DHT22;66590;50.734;4.246;2023-08-30T13:30:04;20.20;99.90
53410;DHT22;66590;50.734;4.246;2023-08-30T13:32:32;20.10;99.90
53410;DHT22;66590;50.734;4.246;2023-08-30T13:34:58;20.20;99.90
53410;DHT22;66590;50.734;4.246;2023-08-30T13:37:27;20.10;99.90
53410;DHT22;66590;50.734;4.246;2023-08-30T13:39:54;20.10;99.90
53410;DHT22;66590;50.734;4.246;2023-08-30T13:42:21;20.10;99.90
53410;DHT22;66590;50.734;4.246;2023-08-30T13:44:50;20.30;99.90
53410;DHT22;66590;50.734;4.246;2023-08-30T13:47:19;20.30;99.90
53410;DHT22;66590;50.734;4.246;2023-08-30T13:49:46;20.50;99.90
53410;DHT22;66590;50.734;4.246;2023-08-30T13:52:13;20.40;99.90
53410;DHT22;66590;50.734;4.246;2023-08-30T13:54:41;20.10;99.90
53410;DHT22;66590;50.734;4.246;2023-08-30T13:57:08;19.70;99.90
53410;DHT22;66590;50.734;4.246;2023-08-30T13:59:35;19.40;99.90
53410;DHT22;66590;50.734;4.246;2023-08-30T14:02:03;19.20;99.90
53410;DHT22;66590;50.734;4.246;2023-08-30T14:04:30;19.10;99.90
53410;DHT22;66590;50.734;4.246;2023-08-30T14:06:57;19.00;99.90
53410;DHT22;66590;50.734;4.246;2023-08-30T14:09:24;19.20;99.90
53410;DHT22;66590;50.734;4.246;2023-08-30T14:11:52;19.10;99.90
53410;DHT22;66590;50.734;4.246;2023-08-30T14:14:19;19.40;99.90
53410;DHT22;66590;50.734;4.246;2023-08-30T14:16:46;19.70;99.90
53410;DHT22;66590;50.734;4.246;2023-08-30T14:19:15;19.70;99.90
53410;DHT22;66590;50.734;4.246;2023-08-30T14:21:42;19.40;99.90
53410;DHT22;66590;50.734;4.246;2023-08-30T14:24:09;19.20;99.90
53410;DHT22;66590;50.734;4.246;2023-08-30T14:26:36;18.80;99.90
53410;DHT22;66590;50.734;4.246;2023-08-30T14:29:05;18.70;99.90
53410;DHT22;66590;50.734;4.246;2023-08-30T14:31:31;18.80;99.90
53410;DHT22;66590;50.734;4.246;2023-08-30T14:33:59;18.80;99.90
53410;DHT22;66590;50.734;4.246;2023-08-30T14:36:26;19.00;99.90
53410;DHT22;66590;50.734;4.246;2023-08-30T14:38:53;18.90;99.90
53410;DHT22;66590;50.734;4.246;2023-08-30T14:41:20;19.00;99.90
53410;DHT22;66590;50.734;4.246;2023-08-30T14:43:47;18.80;99.90
53410;DHT22;66590;50.734;4.246;2023-08-30T14:46:15;19.00;99.90
53410;DHT22;66590;50.734;4.246;2023-08-30T14:48:49;19.10;99.90
53410;DHT22;66590;50.734;4.246;2023-08-30T14:51:16;19.30;99.90
53410;DHT22;66590;50.734;4.246;2023-08-30T14:53:43;19.60;99.90
53410;DHT22;66590;50.734;4.246;2023-08-30T14:56:10;19.90;99.90
53410;DHT22;66590;50.734;4.246;2023-08-30T14:58:37;19.70;99.90
53410;DHT22;66590;50.734;4.246;2023-08-30T15:01:05;19.60;99.90
53410;DHT22;66590;50.734;4.246;2023-08-30T15:03:33;19.40;99.90
53410;DHT22;66590;50.734;4.246;2023-08-30T15:06:00;19.20;99.90
53410;DHT22;66590;50.734;4.246;2023-08-30T15:08:28;19.00;99.90
53410;DHT22;66590;50.734;4.246;2023-08-30T15:10:57;19.00;99.90
53410;DHT22;66590;50.734;4.246;2023-08-30T15:13:24;19.00;99.90
53410;DHT22;66590;50.734;4.246;2023-08-30T15:15:51;18.90;99.90
53410;DHT22;66590;50.734;4.246;2023-08-30T15:18:18;18.80;99.90
53410;DHT22;66590;50.734;4.246;2023-08-30T15:20:47;18.70;99.90
53410;DHT22;66590;50.734;4.246;2023-08-30T15:23:14;18.80;99.90
53410;DHT22;66590;50.734;4.246;2023-08-30T15:25:41;19.20;99.90
53410;DHT22;66590;50.734;4.246;2023-08-30T15:28:08;19.60;99.90
53410;DHT22;66590;50.734;4.246;2023-08-30T15:30:35;19.80;99.90
53410;DHT22;66590;50.734;4.246;2023-08-30T15:33:02;19.90;99.90